Knob Noster, Missouri
Current Conditions -  °F | °C
As of 6:58 AM on Wednesday 22 Oct 2014 (Local Time) from KSZL Reporting Station
Clear Clear  
Wind Chill: 42°   Ceiling: Unl
Heat Index: 45°   Visibility: 10mi
Dew Point: 42°   Wind: 6mph
Humidity: 90%   Direction: 120°ESE
Pressure: 30.21"   Gusts: NA
Location:  38.77°N, 93.56°W
Report Text: KSZL 221158Z AUTO 12005KT 10SM CLR 07/06 A3021 RMK AO2 SLP233 T00730057 10101 20073 53014 $
Loading
Personal Weather Stations






























Interactive Weather Map
Tropical Storm Tracking
New forecast layout! Learn more

10-Day Weather Forecast

Advertisements
Track Severe Weather on mobile